sensor_id;sensor_type;location;lat;lon;timestamp;P1;durP1;ratioP1;P2;durP2;ratioP2
73776;SDS011;62088;50.240;2.696;2023-04-10T00:00:33;7.63;;;5.72;;
73776;SDS011;62088;50.240;2.696;2023-04-10T00:03:03;7.22;;;5.57;;
73776;SDS011;62088;50.240;2.696;2023-04-10T00:05:31;7.05;;;5.30;;
73776;SDS011;62088;50.240;2.696;2023-04-10T00:07:58;9.32;;;5.60;;
73776;SDS011;62088;50.240;2.696;2023-04-10T00:10:26;6.97;;;4.85;;
73776;SDS011;62088;50.240;2.696;2023-04-10T00:12:56;6.93;;;5.63;;
73776;SDS011;62088;50.240;2.696;2023-04-10T00:15:24;7.05;;;5.47;;
73776;SDS011;62088;50.240;2.696;2023-04-10T00:17:51;6.95;;;5.15;;
73776;SDS011;62088;50.240;2.696;2023-04-10T00:20:21;7.25;;;5.47;;
73776;SDS011;62088;50.240;2.696;2023-04-10T00:22:48;7.05;;;5.32;;
73776;SDS011;62088;50.240;2.696;2023-04-10T00:25:15;8.35;;;5.70;;
73776;SDS011;62088;50.240;2.696;2023-04-10T00:27:42;7.80;;;5.80;;
73776;SDS011;62088;50.240;2.696;2023-04-10T00:30:09;7.95;;;5.68;;
73776;SDS011;62088;50.240;2.696;2023-04-10T00:32:37;10.07;;;6.45;;
73776;SDS011;62088;50.240;2.696;2023-04-10T00:35:04;8.30;;;5.95;;
73776;SDS011;62088;50.240;2.696;2023-04-10T00:37:32;7.97;;;5.57;;
73776;SDS011;62088;50.240;2.696;2023-04-10T00:39:59;8.85;;;5.97;;
73776;SDS011;62088;50.240;2.696;2023-04-10T00:42:26;7.63;;;6.38;;
73776;SDS011;62088;50.240;2.696;2023-04-10T00:44:53;7.82;;;6.00;;
73776;SDS011;62088;50.240;2.696;2023-04-10T00:47:20;8.10;;;5.40;;
73776;SDS011;62088;50.240;2.696;2023-04-10T00:49:47;7.88;;;6.57;;
73776;SDS011;62088;50.240;2.696;2023-04-10T00:52:15;7.32;;;5.65;;
73776;SDS011;62088;50.240;2.696;2023-04-10T00:54:43;7.47;;;5.75;;
73776;SDS011;62088;50.240;2.696;2023-04-10T00:57:10;6.97;;;5.47;;
73776;SDS011;62088;50.240;2.696;2023-04-10T00:59:37;7.15;;;5.35;;
73776;SDS011;62088;50.240;2.696;2023-04-10T01:02:04;7.82;;;6.03;;
73776;SDS011;62088;50.240;2.696;2023-04-10T01:04:32;7.25;;;5.68;;
73776;SDS011;62088;50.240;2.696;2023-04-10T01:07:13;7.38;;;5.50;;
73776;SDS011;62088;50.240;2.696;2023-04-10T01:15:14;7.10;;;5.20;;
73776;SDS011;62088;50.240;2.696;2023-04-10T01:20:30;6.45;;;5.35;;
73776;SDS011;62088;50.240;2.696;2023-04-10T01:30:52;6.60;;;5.20;;
73776;SDS011;62088;50.240;2.696;2023-04-10T01:33:29;7.95;;;6.00;;
73776;SDS011;62088;50.240;2.696;2023-04-10T01:36:11;6.78;;;5.38;;
73776;SDS011;62088;50.240;2.696;2023-04-10T01:38:43;7.28;;;5.88;;
73776;SDS011;62088;50.240;2.696;2023-04-10T01:41:11;7.00;;;5.15;;
73776;SDS011;62088;50.240;2.696;2023-04-10T01:43:39;6.72;;;5.03;;
73776;SDS011;62088;50.240;2.696;2023-04-10T01:46:07;6.95;;;5.50;;
73776;SDS011;62088;50.240;2.696;2023-04-10T01:48:37;8.45;;;5.95;;
73776;SDS011;62088;50.240;2.696;2023-04-10T01:51:04;7.70;;;5.30;;
73776;SDS011;62088;50.240;2.696;2023-04-10T01:53:33;7.55;;;5.53;;
73776;SDS011;62088;50.240;2.696;2023-04-10T01:56:02;7.43;;;5.15;;
73776;SDS011;62088;50.240;2.696;2023-04-10T01:58:34;7.10;;;4.97;;
73776;SDS011;62088;50.240;2.696;2023-04-10T02:01:03;6.43;;;5.22;;
73776;SDS011;62088;50.240;2.696;2023-04-10T02:03:30;6.65;;;4.93;;
73776;SDS011;62088;50.240;2.696;2023-04-10T02:08:39;6.60;;;5.25;;
73776;SDS011;62088;50.240;2.696;2023-04-10T02:11:31;6.85;;;5.10;;
73776;SDS011;62088;50.240;2.696;2023-04-10T02:14:04;7.18;;;5.32;;
73776;SDS011;62088;50.240;2.696;2023-04-10T02:16:37;6.68;;;4.90;;
73776;SDS011;62088;50.240;2.696;2023-04-10T02:19:04;7.20;;;5.38;;
73776;SDS011;62088;50.240;2.696;2023-04-10T02:21:32;7.13;;;5.50;;
73776;SDS011;62088;50.240;2.696;2023-04-10T02:24:00;6.38;;;5.03;;
73776;SDS011;62088;50.240;2.696;2023-04-10T02:26:27;6.82;;;5.22;;
73776;SDS011;62088;50.240;2.696;2023-04-10T02:28:54;6.80;;;5.10;;
73776;SDS011;62088;50.240;2.696;2023-04-10T02:31:22;8.40;;;5.80;;
73776;SDS011;62088;50.240;2.696;2023-04-10T02:33:50;7.18;;;5.63;;
73776;SDS011;62088;50.240;2.696;2023-04-10T02:36:17;7.72;;;5.85;;
73776;SDS011;62088;50.240;2.696;2023-04-10T02:38:44;7.60;;;5.50;;
73776;SDS011;62088;50.240;2.696;2023-04-10T02:41:12;6.40;;;4.88;;
73776;SDS011;62088;50.240;2.696;2023-04-10T02:43:39;7.47;;;5.97;;
73776;SDS011;62088;50.240;2.696;2023-04-10T02:46:07;6.55;;;4.80;;
73776;SDS011;62088;50.240;2.696;2023-04-10T02:48:37;6.43;;;5.07;;
73776;SDS011;62088;50.240;2.696;2023-04-10T02:51:04;7.65;;;5.78;;
73776;SDS011;62088;50.240;2.696;2023-04-10T02:53:32;8.07;;;5.80;;
73776;SDS011;62088;50.240;2.696;2023-04-10T02:56:00;7.15;;;5.63;;
73776;SDS011;62088;50.240;2.696;2023-04-10T02:58:28;7.75;;;5.90;;
73776;SDS011;62088;50.240;2.696;2023-04-10T03:00:56;7.95;;;5.95;;
73776;SDS011;62088;50.240;2.696;2023-04-10T03:03:36;7.03;;;5.47;;
73776;SDS011;62088;50.240;2.696;2023-04-10T03:06:03;8.10;;;5.90;;
73776;SDS011;62088;50.240;2.696;2023-04-10T03:08:33;7.40;;;5.53;;
73776;SDS011;62088;50.240;2.696;2023-04-10T03:11:00;7.55;;;5.88;;
73776;SDS011;62088;50.240;2.696;2023-04-10T03:13:27;8.60;;;5.80;;
73776;SDS011;62088;50.240;2.696;2023-04-10T03:15:54;8.00;;;5.90;;
73776;SDS011;62088;50.240;2.696;2023-04-10T03:18:21;8.60;;;5.97;;
73776;SDS011;62088;50.240;2.696;2023-04-10T03:20:51;9.13;;;6.13;;
73776;SDS011;62088;50.240;2.696;2023-04-10T03:23:19;8.70;;;6.32;;
73776;SDS011;62088;50.240;2.696;2023-04-10T03:25:50;8.32;;;6.15;;
73776;SDS011;62088;50.240;2.696;2023-04-10T03:28:22;7.72;;;5.85;;
73776;SDS011;62088;50.240;2.696;2023-04-10T03:30:49;7.95;;;5.78;;
73776;SDS011;62088;50.240;2.696;2023-04-10T03:33:16;7.47;;;6.15;;
73776;SDS011;62088;50.240;2.696;2023-04-10T03:35:46;8.15;;;6.13;;
73776;SDS011;62088;50.240;2.696;2023-04-10T03:38:13;7.80;;;5.85;;
73776;SDS011;62088;50.240;2.696;2023-04-10T03:40:40;8.23;;;6.35;;
73776;SDS011;62088;50.240;2.696;2023-04-10T03:43:09;10.63;;;6.68;;
73776;SDS011;62088;50.240;2.696;2023-04-10T03:45:36;7.85;;;6.00;;
73776;SDS011;62088;50.240;2.696;2023-04-10T03:48:04;8.20;;;6.15;;
73776;SDS011;62088;50.240;2.696;2023-04-10T03:50:39;8.60;;;6.32;;
73776;SDS011;62088;50.240;2.696;2023-04-10T03:53:06;7.22;;;5.95;;
73776;SDS011;62088;50.240;2.696;2023-04-10T03:55:33;7.60;;;5.93;;
73776;SDS011;62088;50.240;2.696;2023-04-10T03:58:01;8.02;;;6.07;;
73776;SDS011;62088;50.240;2.696;2023-04-10T04:00:29;7.28;;;5.80;;
73776;SDS011;62088;50.240;2.696;2023-04-10T04:03:06;7.90;;;5.97;;
73776;SDS011;62088;50.240;2.696;2023-04-10T04:05:52;7.68;;;5.70;;
73776;SDS011;62088;50.240;2.696;2023-04-10T04:08:29;7.47;;;6.05;;
73776;SDS011;62088;50.240;2.696;2023-04-10T04:11:05;7.75;;;5.63;;
73776;SDS011;62088;50.240;2.696;2023-04-10T04:13:37;7.80;;;6.10;;
73776;SDS011;62088;50.240;2.696;2023-04-10T04:16:08;7.72;;;6.05;;
73776;SDS011;62088;50.240;2.696;2023-04-10T04:18:50;7.63;;;5.95;;
73776;SDS011;62088;50.240;2.696;2023-04-10T04:21:28;8.70;;;6.13;;
73776;SDS011;62088;50.240;2.696;2023-04-10T04:24:01;8.23;;;6.27;;
73776;SDS011;62088;50.240;2.696;2023-04-10T04:26:48;6.63;;;5.18;;
73776;SDS011;62088;50.240;2.696;2023-04-10T04:29:33;7.13;;;5.68;;
73776;SDS011;62088;50.240;2.696;2023-04-10T04:32:09;7.50;;;5.80;;
73776;SDS011;62088;50.240;2.696;2023-04-10T04:34:59;7.70;;;5.85;;
73776;SDS011;62088;50.240;2.696;2023-04-10T04:37:46;8.05;;;6.20;;
73776;SDS011;62088;50.240;2.696;2023-04-10T04:40:36;8.95;;;6.07;;
73776;SDS011;62088;50.240;2.696;2023-04-10T04:43:19;7.25;;;5.80;;
73776;SDS011;62088;50.240;2.696;2023-04-10T04:45:59;7.50;;;5.85;;
73776;SDS011;62088;50.240;2.696;2023-04-10T04:48:58;9.07;;;7.05;;
73776;SDS011;62088;50.240;2.696;2023-04-10T04:51:42;7.95;;;6.53;;
73776;SDS011;62088;50.240;2.696;2023-04-10T04:54:34;8.40;;;6.35;;
73776;SDS011;62088;50.240;2.696;2023-04-10T04:57:20;8.23;;;6.53;;
73776;SDS011;62088;50.240;2.696;2023-04-10T05:00:02;8.52;;;6.63;;
73776;SDS011;62088;50.240;2.696;2023-04-10T05:02:45;7.65;;;6.15;;
73776;SDS011;62088;50.240;2.696;2023-04-10T05:05:31;8.80;;;6.28;;
73776;SDS011;62088;50.240;2.696;2023-04-10T05:08:17;7.05;;;5.70;;
73776;SDS011;62088;50.240;2.696;2023-04-10T05:10:56;9.40;;;6.05;;
73776;SDS011;62088;50.240;2.696;2023-04-10T05:13:52;8.88;;;6.63;;
73776;SDS011;62088;50.240;2.696;2023-04-10T05:16:30;7.55;;;6.10;;
73776;SDS011;62088;50.240;2.696;2023-04-10T05:19:15;7.68;;;5.63;;
73776;SDS011;62088;50.240;2.696;2023-04-10T05:21:53;8.60;;;6.35;;
73776;SDS011;62088;50.240;2.696;2023-04-10T05:24:40;7.95;;;6.03;;
73776;SDS011;62088;50.240;2.696;2023-04-10T05:27:13;8.15;;;6.32;;
73776;SDS011;62088;50.240;2.696;2023-04-10T05:30:19;8.20;;;6.15;;
73776;SDS011;62088;50.240;2.696;2023-04-10T05:33:07;10.30;;;6.45;;
73776;SDS011;62088;50.240;2.696;2023-04-10T05:35:54;8.40;;;6.63;;
73776;SDS011;62088;50.240;2.696;2023-04-10T05:38:29;8.52;;;6.35;;
73776;SDS011;62088;50.240;2.696;2023-04-10T05:44:04;8.60;;;6.63;;
73776;SDS011;62088;50.240;2.696;2023-04-10T05:46:50;8.40;;;6.43;;
73776;SDS011;62088;50.240;2.696;2023-04-10T05:49:40;8.68;;;6.65;;
73776;SDS011;62088;50.240;2.696;2023-04-10T05:52:24;8.85;;;6.53;;
73776;SDS011;62088;50.240;2.696;2023-04-10T05:55:21;8.70;;;6.70;;
73776;SDS011;62088;50.240;2.696;2023-04-10T05:58:23;8.60;;;6.82;;
73776;SDS011;62088;50.240;2.696;2023-04-10T06:01:13;8.20;;;6.13;;
73776;SDS011;62088;50.240;2.696;2023-04-10T06:03:49;9.05;;;6.32;;
73776;SDS011;62088;50.240;2.696;2023-04-10T06:06:19;8.73;;;6.88;;
73776;SDS011;62088;50.240;2.696;2023-04-10T06:08:46;8.57;;;6.55;;
73776;SDS011;62088;50.240;2.696;2023-04-10T06:11:13;8.07;;;6.53;;
73776;SDS011;62088;50.240;2.696;2023-04-10T06:13:44;8.07;;;6.63;;
73776;SDS011;62088;50.240;2.696;2023-04-10T06:16:11;8.88;;;6.65;;
73776;SDS011;62088;50.240;2.696;2023-04-10T06:18:41;8.63;;;6.43;;
73776;SDS011;62088;50.240;2.696;2023-04-10T06:21:08;9.18;;;6.50;;
73776;SDS011;62088;50.240;2.696;2023-04-10T06:23:38;8.55;;;6.68;;
73776;SDS011;62088;50.240;2.696;2023-04-10T06:26:06;9.93;;;6.60;;
73776;SDS011;62088;50.240;2.696;2023-04-10T06:36:44;10.30;;;7.13;;
73776;SDS011;62088;50.240;2.696;2023-04-10T06:39:12;8.27;;;6.60;;
73776;SDS011;62088;50.240;2.696;2023-04-10T06:41:39;10.15;;;6.47;;
73776;SDS011;62088;50.240;2.696;2023-04-10T06:44:21;8.23;;;6.28;;
73776;SDS011;62088;50.240;2.696;2023-04-10T06:46:48;7.97;;;6.50;;
73776;SDS011;62088;50.240;2.696;2023-04-10T06:49:16;7.78;;;6.45;;
73776;SDS011;62088;50.240;2.696;2023-04-10T06:51:43;7.90;;;5.82;;
73776;SDS011;62088;50.240;2.696;2023-04-10T06:54:11;7.70;;;6.13;;
73776;SDS011;62088;50.240;2.696;2023-04-10T06:56:38;7.70;;;5.88;;
73776;SDS011;62088;50.240;2.696;2023-04-10T06:59:06;7.55;;;6.25;;
73776;SDS011;62088;50.240;2.696;2023-04-10T07:01:33;8.48;;;6.43;;
73776;SDS011;62088;50.240;2.696;2023-04-10T07:04:00;7.82;;;6.10;;
73776;SDS011;62088;50.240;2.696;2023-04-10T07:06:27;7.90;;;6.25;;
73776;SDS011;62088;50.240;2.696;2023-04-10T07:08:54;7.63;;;6.40;;
73776;SDS011;62088;50.240;2.696;2023-04-10T07:11:21;7.80;;;6.20;;
73776;SDS011;62088;50.240;2.696;2023-04-10T07:13:48;7.53;;;5.85;;
73776;SDS011;62088;50.240;2.696;2023-04-10T07:16:19;9.23;;;6.15;;
73776;SDS011;62088;50.240;2.696;2023-04-10T07:18:46;7.80;;;6.15;;
73776;SDS011;62088;50.240;2.696;2023-04-10T07:21:13;7.30;;;5.75;;
73776;SDS011;62088;50.240;2.696;2023-04-10T07:23:40;8.02;;;6.05;;
73776;SDS011;62088;50.240;2.696;2023-04-10T07:26:07;8.85;;;6.35;;
73776;SDS011;62088;50.240;2.696;2023-04-10T07:28:34;8.23;;;5.80;;
73776;SDS011;62088;50.240;2.696;2023-04-10T07:31:02;8.02;;;5.90;;
73776;SDS011;62088;50.240;2.696;2023-04-10T07:33:29;9.55;;;6.47;;
73776;SDS011;62088;50.240;2.696;2023-04-10T07:35:56;9.60;;;6.40;;
73776;SDS011;62088;50.240;2.696;2023-04-10T07:38:23;7.97;;;6.47;;
73776;SDS011;62088;50.240;2.696;2023-04-10T07:40:57;7.78;;;6.35;;
73776;SDS011;62088;50.240;2.696;2023-04-10T07:43:24;7.07;;;5.75;;
73776;SDS011;62088;50.240;2.696;2023-04-10T07:45:51;8.27;;;5.95;;
73776;SDS011;62088;50.240;2.696;2023-04-10T07:48:18;8.35;;;6.30;;
73776;SDS011;62088;50.240;2.696;2023-04-10T07:50:45;8.80;;;6.55;;
73776;SDS011;62088;50.240;2.696;2023-04-10T07:53:13;9.30;;;6.45;;
73776;SDS011;62088;50.240;2.696;2023-04-10T07:55:43;9.32;;;6.70;;
73776;SDS011;62088;50.240;2.696;2023-04-10T07:58:11;7.75;;;6.28;;
73776;SDS011;62088;50.240;2.696;2023-04-10T08:00:38;8.30;;;6.25;;
73776;SDS011;62088;50.240;2.696;2023-04-10T08:03:05;8.35;;;6.15;;
73776;SDS011;62088;50.240;2.696;2023-04-10T08:05:33;7.40;;;5.75;;
73776;SDS011;62088;50.240;2.696;2023-04-10T08:08:00;8.30;;;6.25;;
73776;SDS011;62088;50.240;2.696;2023-04-10T08:10:27;7.32;;;6.00;;
73776;SDS011;62088;50.240;2.696;2023-04-10T08:12:54;8.30;;;6.05;;
73776;SDS011;62088;50.240;2.696;2023-04-10T08:15:21;7.35;;;6.18;;
73776;SDS011;62088;50.240;2.696;2023-04-10T08:17:48;7.63;;;6.13;;
73776;SDS011;62088;50.240;2.696;2023-04-10T08:20:15;9.15;;;6.05;;
73776;SDS011;62088;50.240;2.696;2023-04-10T08:22:42;7.20;;;5.97;;
73776;SDS011;62088;50.240;2.696;2023-04-10T08:25:09;8.63;;;6.57;;
73776;SDS011;62088;50.240;2.696;2023-04-10T08:27:36;7.80;;;6.03;;
73776;SDS011;62088;50.240;2.696;2023-04-10T08:30:03;8.23;;;5.97;;
73776;SDS011;62088;50.240;2.696;2023-04-10T08:32:31;7.60;;;5.90;;
73776;SDS011;62088;50.240;2.696;2023-04-10T08:34:58;8.02;;;6.32;;
73776;SDS011;62088;50.240;2.696;2023-04-10T08:37:25;7.25;;;5.80;;
73776;SDS011;62088;50.240;2.696;2023-04-10T08:39:52;7.88;;;5.93;;
73776;SDS011;62088;50.240;2.696;2023-04-10T08:42:19;6.45;;;5.28;;
73776;SDS011;62088;50.240;2.696;2023-04-10T08:44:47;8.32;;;6.55;;
73776;SDS011;62088;50.240;2.696;2023-04-10T08:47:15;7.40;;;5.63;;
73776;SDS011;62088;50.240;2.696;2023-04-10T08:49:49;7.80;;;5.88;;
73776;SDS011;62088;50.240;2.696;2023-04-10T08:52:21;7.50;;;5.65;;
73776;SDS011;62088;50.240;2.696;2023-04-10T08:54:54;7.90;;;5.90;;
73776;SDS011;62088;50.240;2.696;2023-04-10T08:57:23;9.30;;;5.55;;
73776;SDS011;62088;50.240;2.696;2023-04-10T08:59:52;9.15;;;5.97;;
73776;SDS011;62088;50.240;2.696;2023-04-10T09:02:19;7.88;;;6.20;;
73776;SDS011;62088;50.240;2.696;2023-04-10T09:04:50;7.72;;;5.88;;
73776;SDS011;62088;50.240;2.696;2023-04-10T09:07:21;7.18;;;5.57;;
73776;SDS011;62088;50.240;2.696;2023-04-10T09:09:48;7.22;;;5.50;;
73776;SDS011;62088;50.240;2.696;2023-04-10T09:12:15;10.75;;;5.60;;
73776;SDS011;62088;50.240;2.696;2023-04-10T09:14:42;7.70;;;5.95;;
73776;SDS011;62088;50.240;2.696;2023-04-10T09:17:16;6.68;;;5.20;;
73776;SDS011;62088;50.240;2.696;2023-04-10T09:19:45;7.40;;;5.35;;
73776;SDS011;62088;50.240;2.696;2023-04-10T09:22:14;7.15;;;5.50;;
73776;SDS011;62088;50.240;2.696;2023-04-10T09:24:42;7.00;;;5.43;;
73776;SDS011;62088;50.240;2.696;2023-04-10T09:27:26;7.38;;;5.57;;
73776;SDS011;62088;50.240;2.696;2023-04-10T09:30:04;7.95;;;5.15;;
73776;SDS011;62088;50.240;2.696;2023-04-10T09:32:39;7.72;;;5.82;;
73776;SDS011;62088;50.240;2.696;2023-04-10T09:35:08;8.52;;;5.47;;
73776;SDS011;62088;50.240;2.696;2023-04-10T09:37:37;7.68;;;5.72;;
73776;SDS011;62088;50.240;2.696;2023-04-10T09:40:08;8.05;;;6.03;;
73776;SDS011;62088;50.240;2.696;2023-04-10T09:42:50;7.55;;;6.03;;
73776;SDS011;62088;50.240;2.696;2023-04-10T09:45:18;7.75;;;5.85;;
73776;SDS011;62088;50.240;2.696;2023-04-10T09:48:02;6.72;;;5.38;;
73776;SDS011;62088;50.240;2.696;2023-04-10T09:50:35;8.93;;;5.95;;
73776;SDS011;62088;50.240;2.696;2023-04-10T09:53:09;7.63;;;5.82;;
73776;SDS011;62088;50.240;2.696;2023-04-10T09:55:38;7.18;;;5.57;;
73776;SDS011;62088;50.240;2.696;2023-04-10T09:58:06;7.53;;;5.93;;
73776;SDS011;62088;50.240;2.696;2023-04-10T10:00:43;7.78;;;6.10;;
73776;SDS011;62088;50.240;2.696;2023-04-10T10:03:15;7.68;;;5.45;;
73776;SDS011;62088;50.240;2.696;2023-04-10T10:05:45;6.85;;;5.35;;
73776;SDS011;62088;50.240;2.696;2023-04-10T10:08:16;7.38;;;6.00;;
73776;SDS011;62088;50.240;2.696;2023-04-10T10:16:10;6.88;;;5.10;;
73776;SDS011;62088;50.240;2.696;2023-04-10T10:21:38;6.35;;;4.80;;
73776;SDS011;62088;50.240;2.696;2023-04-10T10:24:07;6.57;;;4.90;;
73776;SDS011;62088;50.240;2.696;2023-04-10T10:26:36;7.20;;;5.25;;
73776;SDS011;62088;50.240;2.696;2023-04-10T10:29:08;7.65;;;4.45;;
73776;SDS011;62088;50.240;2.696;2023-04-10T10:31:36;6.32;;;4.93;;
73776;SDS011;62088;50.240;2.696;2023-04-10T10:34:04;6.78;;;4.70;;
73776;SDS011;62088;50.240;2.696;2023-04-10T10:36:33;6.30;;;4.35;;
73776;SDS011;62088;50.240;2.696;2023-04-10T10:41:42;6.05;;;4.60;;
73776;SDS011;62088;50.240;2.696;2023-04-10T10:44:25;7.03;;;5.00;;
73776;SDS011;62088;50.240;2.696;2023-04-10T10:47:13;6.15;;;4.78;;
73776;SDS011;62088;50.240;2.696;2023-04-10T10:49:50;6.93;;;4.90;;
73776;SDS011;62088;50.240;2.696;2023-04-10T10:57:48;6.90;;;5.10;;
73776;SDS011;62088;50.240;2.696;2023-04-10T11:00:20;8.65;;;5.80;;
73776;SDS011;62088;50.240;2.696;2023-04-10T11:05:52;8.05;;;5.20;;
73776;SDS011;62088;50.240;2.696;2023-04-10T11:16:23;5.85;;;4.25;;
73776;SDS011;62088;50.240;2.696;2023-04-10T11:19:10;8.63;;;5.03;;
73776;SDS011;62088;50.240;2.696;2023-04-10T11:22:02;5.70;;;4.28;;
73776;SDS011;62088;50.240;2.696;2023-04-10T11:24:53;6.43;;;4.28;;
73776;SDS011;62088;50.240;2.696;2023-04-10T11:27:42;6.18;;;4.45;;
73776;SDS011;62088;50.240;2.696;2023-04-10T11:32:54;7.45;;;4.60;;
73776;SDS011;62088;50.240;2.696;2023-04-10T11:35:22;6.65;;;4.35;;
73776;SDS011;62088;50.240;2.696;2023-04-10T11:37:50;7.18;;;4.32;;
73776;SDS011;62088;50.240;2.696;2023-04-10T11:40:18;5.90;;;4.43;;
73776;SDS011;62088;50.240;2.696;2023-04-10T11:42:46;6.50;;;4.57;;
73776;SDS011;62088;50.240;2.696;2023-04-10T11:45:21;6.10;;;4.65;;
73776;SDS011;62088;50.240;2.696;2023-04-10T11:47:52;6.75;;;4.70;;
73776;SDS011;62088;50.240;2.696;2023-04-10T11:50:20;7.82;;;4.80;;
73776;SDS011;62088;50.240;2.696;2023-04-10T11:52:50;7.72;;;5.32;;
73776;SDS011;62088;50.240;2.696;2023-04-10T11:55:34;6.68;;;4.70;;
73776;SDS011;62088;50.240;2.696;2023-04-10T11:58:08;5.93;;;4.65;;
73776;SDS011;62088;50.240;2.696;2023-04-10T12:00:58;6.32;;;4.63;;
73776;SDS011;62088;50.240;2.696;2023-04-10T12:03:31;6.93;;;5.20;;
73776;SDS011;62088;50.240;2.696;2023-04-10T12:05:59;6.60;;;4.88;;
73776;SDS011;62088;50.240;2.696;2023-04-10T12:08:33;9.75;;;5.03;;
73776;SDS011;62088;50.240;2.696;2023-04-10T12:11:01;7.15;;;5.50;;
73776;SDS011;62088;50.240;2.696;2023-04-10T12:13:29;6.72;;;5.40;;
73776;SDS011;62088;50.240;2.696;2023-04-10T12:15:58;6.82;;;5.03;;
73776;SDS011;62088;50.240;2.696;2023-04-10T12:18:30;7.65;;;5.80;;
73776;SDS011;62088;50.240;2.696;2023-04-10T12:20:57;7.60;;;5.45;;
73776;SDS011;62088;50.240;2.696;2023-04-10T12:23:25;9.13;;;5.00;;
73776;SDS011;62088;50.240;2.696;2023-04-10T12:26:04;8.13;;;5.38;;
73776;SDS011;62088;50.240;2.696;2023-04-10T12:28:37;7.15;;;5.43;;
73776;SDS011;62088;50.240;2.696;2023-04-10T12:31:04;8.18;;;5.47;;
73776;SDS011;62088;50.240;2.696;2023-04-10T12:33:32;6.85;;;5.32;;
73776;SDS011;62088;50.240;2.696;2023-04-10T12:35:59;8.57;;;5.18;;
73776;SDS011;62088;50.240;2.696;2023-04-10T12:38:33;7.43;;;5.13;;
73776;SDS011;62088;50.240;2.696;2023-04-10T12:41:07;7.43;;;5.47;;
73776;SDS011;62088;50.240;2.696;2023-04-10T12:43:38;8.32;;;5.50;;
73776;SDS011;62088;50.240;2.696;2023-04-10T12:46:07;7.15;;;5.03;;
73776;SDS011;62088;50.240;2.696;2023-04-10T12:48:36;7.93;;;5.47;;
73776;SDS011;62088;50.240;2.696;2023-04-10T12:51:03;7.40;;;5.80;;
73776;SDS011;62088;50.240;2.696;2023-04-10T12:53:30;7.95;;;4.85;;
73776;SDS011;62088;50.240;2.696;2023-04-10T12:55:59;6.38;;;4.78;;
73776;SDS011;62088;50.240;2.696;2023-04-10T12:58:31;8.10;;;5.63;;
73776;SDS011;62088;50.240;2.696;2023-04-10T13:01:04;7.82;;;5.20;;
73776;SDS011;62088;50.240;2.696;2023-04-10T13:03:32;8.55;;;4.75;;
73776;SDS011;62088;50.240;2.696;2023-04-10T13:06:02;5.30;;;3.90;;
73776;SDS011;62088;50.240;2.696;2023-04-10T13:08:32;5.80;;;3.80;;
73776;SDS011;62088;50.240;2.696;2023-04-10T13:10:59;5.55;;;3.70;;
73776;SDS011;62088;50.240;2.696;2023-04-10T13:13:29;5.68;;;3.47;;
73776;SDS011;62088;50.240;2.696;2023-04-10T13:15:58;5.03;;;3.15;;
73776;SDS011;62088;50.240;2.696;2023-04-10T13:18:26;5.03;;;3.35;;
73776;SDS011;62088;50.240;2.696;2023-04-10T13:20:53;5.13;;;3.58;;
73776;SDS011;62088;50.240;2.696;2023-04-10T13:23:20;5.43;;;3.58;;
73776;SDS011;62088;50.240;2.696;2023-04-10T13:25:47;4.90;;;3.42;;
73776;SDS011;62088;50.240;2.696;2023-04-10T13:28:14;4.75;;;3.10;;
73776;SDS011;62088;50.240;2.696;2023-04-10T13:30:41;6.40;;;3.80;;
73776;SDS011;62088;50.240;2.696;2023-04-10T13:33:08;7.20;;;3.53;;
73776;SDS011;62088;50.240;2.696;2023-04-10T13:35:36;4.80;;;3.30;;
73776;SDS011;62088;50.240;2.696;2023-04-10T13:38:05;4.95;;;3.35;;
73776;SDS011;62088;50.240;2.696;2023-04-10T13:40:34;6.22;;;3.83;;
73776;SDS011;62088;50.240;2.696;2023-04-10T13:43:01;4.82;;;3.22;;
73776;SDS011;62088;50.240;2.696;2023-04-10T13:45:29;6.55;;;3.72;;
73776;SDS011;62088;50.240;2.696;2023-04-10T13:47:56;5.40;;;3.83;;
73776;SDS011;62088;50.240;2.696;2023-04-10T13:50:23;5.10;;;3.60;;
73776;SDS011;62088;50.240;2.696;2023-04-10T13:52:50;5.80;;;3.88;;
73776;SDS011;62088;50.240;2.696;2023-04-10T13:55:18;5.40;;;3.55;;
73776;SDS011;62088;50.240;2.696;2023-04-10T13:57:46;6.18;;;3.28;;
73776;SDS011;62088;50.240;2.696;2023-04-10T14:00:13;5.57;;;3.63;;
73776;SDS011;62088;50.240;2.696;2023-04-10T14:02:40;5.32;;;3.65;;
73776;SDS011;62088;50.240;2.696;2023-04-10T14:05:08;5.18;;;3.17;;
73776;SDS011;62088;50.240;2.696;2023-04-10T14:07:35;5.35;;;3.40;;
73776;SDS011;62088;50.240;2.696;2023-04-10T14:10:02;6.35;;;3.38;;
73776;SDS011;62088;50.240;2.696;2023-04-10T14:12:29;5.30;;;3.50;;
73776;SDS011;62088;50.240;2.696;2023-04-10T14:14:57;5.65;;;3.40;;
73776;SDS011;62088;50.240;2.696;2023-04-10T14:17:24;5.35;;;4.20;;
73776;SDS011;62088;50.240;2.696;2023-04-10T14:19:52;5.93;;;3.75;;
73776;SDS011;62088;50.240;2.696;2023-04-10T14:22:19;6.43;;;3.97;;
73776;SDS011;62088;50.240;2.696;2023-04-10T14:24:46;4.90;;;1.92;;
73776;SDS011;62088;50.240;2.696;2023-04-10T14:27:14;7.25;;;1.83;;
73776;SDS011;62088;50.240;2.696;2023-04-10T14:29:42;6.43;;;1.90;;
73776;SDS011;62088;50.240;2.696;2023-04-10T14:32:19;6.88;;;1.70;;
73776;SDS011;62088;50.240;2.696;2023-04-10T14:34:46;6.57;;;1.70;;
73776;SDS011;62088;50.240;2.696;2023-04-10T14:37:13;3.70;;;1.50;;
73776;SDS011;62088;50.240;2.696;2023-04-10T14:39:41;8.27;;;2.75;;
73776;SDS011;62088;50.240;2.696;2023-04-10T14:42:08;6.72;;;2.70;;
73776;SDS011;62088;50.240;2.696;2023-04-10T14:44:35;6.57;;;2.17;;
73776;SDS011;62088;50.240;2.696;2023-04-10T14:47:02;4.82;;;1.73;;
73776;SDS011;62088;50.240;2.696;2023-04-10T14:49:31;4.45;;;1.52;;
73776;SDS011;62088;50.240;2.696;2023-04-10T14:51:59;8.55;;;2.38;;
73776;SDS011;62088;50.240;2.696;2023-04-10T14:54:26;5.50;;;1.90;;
73776;SDS011;62088;50.240;2.696;2023-04-10T14:56:53;6.55;;;2.42;;
73776;SDS011;62088;50.240;2.696;2023-04-10T14:59:20;5.28;;;2.00;;
73776;SDS011;62088;50.240;2.696;2023-04-10T15:01:47;7.63;;;1.52;;
73776;SDS011;62088;50.240;2.696;2023-04-10T15:04:14;9.00;;;2.25;;
73776;SDS011;62088;50.240;2.696;2023-04-10T15:06:41;5.70;;;1.70;;
73776;SDS011;62088;50.240;2.696;2023-04-10T15:09:08;6.97;;;1.92;;
73776;SDS011;62088;50.240;2.696;2023-04-10T15:11:35;8.30;;;1.83;;
73776;SDS011;62088;50.240;2.696;2023-04-10T15:14:02;6.50;;;1.73;;
73776;SDS011;62088;50.240;2.696;2023-04-10T15:16:29;7.25;;;1.80;;
73776;SDS011;62088;50.240;2.696;2023-04-10T15:18:56;6.95;;;1.95;;
73776;SDS011;62088;50.240;2.696;2023-04-10T15:21:23;7.03;;;2.33;;
73776;SDS011;62088;50.240;2.696;2023-04-10T15:23:50;7.32;;;2.28;;
73776;SDS011;62088;50.240;2.696;2023-04-10T15:26:17;7.50;;;2.80;;
73776;SDS011;62088;50.240;2.696;2023-04-10T15:28:46;7.57;;;2.60;;
73776;SDS011;62088;50.240;2.696;2023-04-10T15:31:13;7.28;;;2.83;;
73776;SDS011;62088;50.240;2.696;2023-04-10T15:33:41;10.95;;;3.92;;
73776;SDS011;62088;50.240;2.696;2023-04-10T15:36:08;10.48;;;3.92;;
73776;SDS011;62088;50.240;2.696;2023-04-10T15:38:35;11.90;;;4.45;;
73776;SDS011;62088;50.240;2.696;2023-04-10T15:41:06;13.43;;;6.35;;
73776;SDS011;62088;50.240;2.696;2023-04-10T15:43:35;12.95;;;3.65;;
73776;SDS011;62088;50.240;2.696;2023-04-10T15:46:03;7.43;;;2.40;;
73776;SDS011;62088;50.240;2.696;2023-04-10T15:48:30;9.35;;;2.58;;
73776;SDS011;62088;50.240;2.696;2023-04-10T15:50:57;8.40;;;2.42;;
73776;SDS011;62088;50.240;2.696;2023-04-10T15:53:28;7.72;;;2.17;;
73776;SDS011;62088;50.240;2.696;2023-04-10T15:55:55;7.80;;;2.35;;
73776;SDS011;62088;50.240;2.696;2023-04-10T15:58:22;8.82;;;2.20;;
73776;SDS011;62088;50.240;2.696;2023-04-10T16:00:49;8.15;;;1.98;;
73776;SDS011;62088;50.240;2.696;2023-04-10T16:03:16;8.50;;;1.95;;
73776;SDS011;62088;50.240;2.696;2023-04-10T16:05:44;7.03;;;2.20;;
73776;SDS011;62088;50.240;2.696;2023-04-10T16:08:11;8.98;;;2.58;;
73776;SDS011;62088;50.240;2.696;2023-04-10T16:10:38;8.45;;;2.78;;